sensor_id;sensor_type;location;lat;lon;timestamp;temperature;humidity
22360;DHT22;11347;52.030;4.690;2022-10-22T00:01:10;18.30;68.70
22360;DHT22;11347;52.030;4.690;2022-10-22T00:03:36;18.30;68.70
22360;DHT22;11347;52.030;4.690;2022-10-22T00:06:02;18.30;68.80
22360;DHT22;11347;52.030;4.690;2022-10-22T00:08:28;18.30;68.70
22360;DHT22;11347;52.030;4.690;2022-10-22T00:10:53;18.30;68.80
22360;DHT22;11347;52.030;4.690;2022-10-22T00:13:19;18.30;69.00
22360;DHT22;11347;52.030;4.690;2022-10-22T00:15:44;18.30;69.00
22360;DHT22;11347;52.030;4.690;2022-10-22T00:18:10;18.30;69.20
22360;DHT22;11347;52.030;4.690;2022-10-22T00:20:36;18.30;69.30
22360;DHT22;11347;52.030;4.690;2022-10-22T00:23:01;18.30;69.30
22360;DHT22;11347;52.030;4.690;2022-10-22T00:25:27;18.30;69.20
22360;DHT22;11347;52.030;4.690;2022-10-22T00:27:53;18.30;69.30
22360;DHT22;11347;52.030;4.690;2022-10-22T00:30:18;18.30;69.30
22360;DHT22;11347;52.030;4.690;2022-10-22T00:32:44;18.30;69.30
22360;DHT22;11347;52.030;4.690;2022-10-22T00:35:09;18.30;69.30
22360;DHT22;11347;52.030;4.690;2022-10-22T00:37:35;18.30;69.30
22360;DHT22;11347;52.030;4.690;2022-10-22T00:40:01;18.30;69.30
22360;DHT22;11347;52.030;4.690;2022-10-22T00:42:27;18.30;69.40
22360;DHT22;11347;52.030;4.690;2022-10-22T00:47:37;18.30;69.50
22360;DHT22;11347;52.030;4.690;2022-10-22T00:50:10;18.30;69.40
22360;DHT22;11347;52.030;4.690;2022-10-22T00:52:36;18.30;69.50
22360;DHT22;11347;52.030;4.690;2022-10-22T00:55:03;18.30;69.50
22360;DHT22;11347;52.030;4.690;2022-10-22T00:57:29;18.30;69.50
22360;DHT22;11347;52.030;4.690;2022-10-22T00:59:55;18.30;69.60
22360;DHT22;11347;52.030;4.690;2022-10-22T01:02:21;18.30;69.60
22360;DHT22;11347;52.030;4.690;2022-10-22T01:04:47;18.30;69.60
22360;DHT22;11347;52.030;4.690;2022-10-22T01:07:17;18.30;70.10
22360;DHT22;11347;52.030;4.690;2022-10-22T01:10:02;18.30;69.80
22360;DHT22;11347;52.030;4.690;2022-10-22T01:15:47;18.30;69.80
22360;DHT22;11347;52.030;4.690;2022-10-22T01:18:19;18.30;70.00
22360;DHT22;11347;52.030;4.690;2022-10-22T01:21:00;18.30;70.20
22360;DHT22;11347;52.030;4.690;2022-10-22T01:31:49;18.30;70.10
22360;DHT22;11347;52.030;4.690;2022-10-22T01:34:18;18.30;70.10
22360;DHT22;11347;52.030;4.690;2022-10-22T01:36:45;18.30;70.10
22360;DHT22;11347;52.030;4.690;2022-10-22T01:39:13;18.30;70.10
22360;DHT22;11347;52.030;4.690;2022-10-22T01:41:43;18.30;70.20
22360;DHT22;11347;52.030;4.690;2022-10-22T01:44:42;18.30;70.30
22360;DHT22;11347;52.030;4.690;2022-10-22T01:55:37;18.30;70.60
22360;DHT22;11347;52.030;4.690;2022-10-22T01:58:20;18.30;70.60
22360;DHT22;11347;52.030;4.690;2022-10-22T02:00:57;18.30;70.60
22360;DHT22;11347;52.030;4.690;2022-10-22T02:03:29;18.30;70.70
22360;DHT22;11347;52.030;4.690;2022-10-22T02:06:05;18.30;70.70
22360;DHT22;11347;52.030;4.690;2022-10-22T02:08:34;18.30;70.70
22360;DHT22;11347;52.030;4.690;2022-10-22T02:11:02;18.30;70.60
22360;DHT22;11347;52.030;4.690;2022-10-22T02:13:33;18.30;70.80
22360;DHT22;11347;52.030;4.690;2022-10-22T02:16:03;18.30;70.80
22360;DHT22;11347;52.030;4.690;2022-10-22T02:18:31;18.30;70.70
22360;DHT22;11347;52.030;4.690;2022-10-22T02:20:58;18.30;70.90
22360;DHT22;11347;52.030;4.690;2022-10-22T02:23:24;18.30;71.00
22360;DHT22;11347;52.030;4.690;2022-10-22T02:26:00;18.30;71.10
22360;DHT22;11347;52.030;4.690;2022-10-22T02:31:23;18.30;71.10
22360;DHT22;11347;52.030;4.690;2022-10-22T02:33:53;18.30;71.00
22360;DHT22;11347;52.030;4.690;2022-10-22T02:36:21;18.30;70.90
22360;DHT22;11347;52.030;4.690;2022-10-22T02:38:48;18.30;70.80
22360;DHT22;11347;52.030;4.690;2022-10-22T02:41:15;18.30;70.70
22360;DHT22;11347;52.030;4.690;2022-10-22T02:43:47;18.30;70.80
22360;DHT22;11347;52.030;4.690;2022-10-22T02:46:13;18.30;70.90
22360;DHT22;11347;52.030;4.690;2022-10-22T02:48:39;18.30;71.00
22360;DHT22;11347;52.030;4.690;2022-10-22T02:51:05;18.30;71.10
22360;DHT22;11347;52.030;4.690;2022-10-22T02:53:30;18.30;71.20
22360;DHT22;11347;52.030;4.690;2022-10-22T02:55:56;18.30;71.20
22360;DHT22;11347;52.030;4.690;2022-10-22T02:58:21;18.30;71.10
22360;DHT22;11347;52.030;4.690;2022-10-22T03:00:47;18.30;71.00
22360;DHT22;11347;52.030;4.690;2022-10-22T03:03:13;18.30;70.80
22360;DHT22;11347;52.030;4.690;2022-10-22T03:05:38;18.30;71.00
22360;DHT22;11347;52.030;4.690;2022-10-22T03:08:04;18.30;71.20
22360;DHT22;11347;52.030;4.690;2022-10-22T03:10:29;18.30;71.10
22360;DHT22;11347;52.030;4.690;2022-10-22T03:12:55;18.30;71.00
22360;DHT22;11347;52.030;4.690;2022-10-22T03:15:21;18.30;71.00
22360;DHT22;11347;52.030;4.690;2022-10-22T03:17:46;18.30;71.00
22360;DHT22;11347;52.030;4.690;2022-10-22T03:20:12;18.30;71.00
22360;DHT22;11347;52.030;4.690;2022-10-22T03:22:38;18.30;71.00
22360;DHT22;11347;52.030;4.690;2022-10-22T03:25:08;18.30;71.00
22360;DHT22;11347;52.030;4.690;2022-10-22T03:27:36;18.30;70.90
22360;DHT22;11347;52.030;4.690;2022-10-22T03:30:03;18.30;70.90
22360;DHT22;11347;52.030;4.690;2022-10-22T03:32:29;18.30;70.80
22360;DHT22;11347;52.030;4.690;2022-10-22T03:34:55;18.30;71.20
22360;DHT22;11347;52.030;4.690;2022-10-22T03:37:21;18.20;70.70
22360;DHT22;11347;52.030;4.690;2022-10-22T03:39:47;18.30;70.80
22360;DHT22;11347;52.030;4.690;2022-10-22T03:42:13;18.30;70.80
22360;DHT22;11347;52.030;4.690;2022-10-22T03:44:39;18.30;70.80
22360;DHT22;11347;52.030;4.690;2022-10-22T03:47:05;18.30;70.80
22360;DHT22;11347;52.030;4.690;2022-10-22T03:49:31;18.30;70.70
22360;DHT22;11347;52.030;4.690;2022-10-22T03:51:57;18.30;70.70
22360;DHT22;11347;52.030;4.690;2022-10-22T03:54:22;18.30;70.60
22360;DHT22;11347;52.030;4.690;2022-10-22T03:56:48;18.30;70.60
22360;DHT22;11347;52.030;4.690;2022-10-22T03:59:13;18.30;70.60
22360;DHT22;11347;52.030;4.690;2022-10-22T04:01:39;18.30;70.60
22360;DHT22;11347;52.030;4.690;2022-10-22T04:04:05;18.30;70.60
22360;DHT22;11347;52.030;4.690;2022-10-22T04:06:31;18.30;70.70
22360;DHT22;11347;52.030;4.690;2022-10-22T04:08:56;18.30;70.70
22360;DHT22;11347;52.030;4.690;2022-10-22T04:11:22;18.30;70.80
22360;DHT22;11347;52.030;4.690;2022-10-22T04:13:47;18.30;70.80
22360;DHT22;11347;52.030;4.690;2022-10-22T04:16:18;18.30;70.80
22360;DHT22;11347;52.030;4.690;2022-10-22T04:18:46;18.30;70.90
22360;DHT22;11347;52.030;4.690;2022-10-22T04:21:13;18.30;70.90
22360;DHT22;11347;52.030;4.690;2022-10-22T04:23:44;18.30;70.90
22360;DHT22;11347;52.030;4.690;2022-10-22T04:26:10;18.30;70.90
22360;DHT22;11347;52.030;4.690;2022-10-22T04:28:35;18.30;70.90
22360;DHT22;11347;52.030;4.690;2022-10-22T04:31:07;18.30;70.90
22360;DHT22;11347;52.030;4.690;2022-10-22T04:33:33;18.30;71.10
22360;DHT22;11347;52.030;4.690;2022-10-22T04:35:58;18.30;71.10
22360;DHT22;11347;52.030;4.690;2022-10-22T04:38:24;18.30;71.00
22360;DHT22;11347;52.030;4.690;2022-10-22T04:40:49;18.30;70.90
22360;DHT22;11347;52.030;4.690;2022-10-22T04:43:15;18.30;70.90
22360;DHT22;11347;52.030;4.690;2022-10-22T04:45:40;18.30;70.80
22360;DHT22;11347;52.030;4.690;2022-10-22T04:48:06;18.30;70.80
22360;DHT22;11347;52.030;4.690;2022-10-22T04:50:31;18.30;70.80
22360;DHT22;11347;52.030;4.690;2022-10-22T04:52:57;18.30;70.80
22360;DHT22;11347;52.030;4.690;2022-10-22T04:55:23;18.30;70.70
22360;DHT22;11347;52.030;4.690;2022-10-22T04:57:48;18.30;70.80
22360;DHT22;11347;52.030;4.690;2022-10-22T05:00:14;18.30;70.80
22360;DHT22;11347;52.030;4.690;2022-10-22T05:02:40;18.30;70.70
22360;DHT22;11347;52.030;4.690;2022-10-22T05:05:09;18.30;70.70
22360;DHT22;11347;52.030;4.690;2022-10-22T05:07:34;18.30;70.70
22360;DHT22;11347;52.030;4.690;2022-10-22T05:10:00;18.30;70.70
22360;DHT22;11347;52.030;4.690;2022-10-22T05:12:26;18.30;70.60
22360;DHT22;11347;52.030;4.690;2022-10-22T05:14:53;18.30;70.70
22360;DHT22;11347;52.030;4.690;2022-10-22T05:17:20;18.30;70.70
22360;DHT22;11347;52.030;4.690;2022-10-22T05:19:45;18.30;70.70
22360;DHT22;11347;52.030;4.690;2022-10-22T05:22:11;18.30;70.60
22360;DHT22;11347;52.030;4.690;2022-10-22T05:24:37;18.30;70.60
22360;DHT22;11347;52.030;4.690;2022-10-22T05:27:02;18.30;70.60
22360;DHT22;11347;52.030;4.690;2022-10-22T05:29:28;18.20;70.50
22360;DHT22;11347;52.030;4.690;2022-10-22T05:31:54;18.30;70.60
22360;DHT22;11347;52.030;4.690;2022-10-22T05:34:20;18.30;70.60
22360;DHT22;11347;52.030;4.690;2022-10-22T05:36:45;18.30;70.60
22360;DHT22;11347;52.030;4.690;2022-10-22T05:39:12;18.30;70.50
22360;DHT22;11347;52.030;4.690;2022-10-22T05:41:37;18.30;70.60
22360;DHT22;11347;52.030;4.690;2022-10-22T05:44:04;18.30;70.60
22360;DHT22;11347;52.030;4.690;2022-10-22T05:46:33;18.20;70.50
22360;DHT22;11347;52.030;4.690;2022-10-22T05:49:01;18.30;70.60
22360;DHT22;11347;52.030;4.690;2022-10-22T05:51:28;18.30;70.60
22360;DHT22;11347;52.030;4.690;2022-10-22T05:53:56;18.30;70.60
22360;DHT22;11347;52.030;4.690;2022-10-22T05:56:23;18.30;70.70
22360;DHT22;11347;52.030;4.690;2022-10-22T05:58:49;18.20;70.50
22360;DHT22;11347;52.030;4.690;2022-10-22T06:01:20;18.30;70.60
22360;DHT22;11347;52.030;4.690;2022-10-22T06:03:46;18.30;70.60
22360;DHT22;11347;52.030;4.690;2022-10-22T06:06:28;18.20;70.60
22360;DHT22;11347;52.030;4.690;2022-10-22T06:08:55;18.30;70.60
22360;DHT22;11347;52.030;4.690;2022-10-22T06:11:23;18.30;70.50
22360;DHT22;11347;52.030;4.690;2022-10-22T06:13:50;18.20;70.50
22360;DHT22;11347;52.030;4.690;2022-10-22T06:16:16;18.30;70.60
22360;DHT22;11347;52.030;4.690;2022-10-22T06:18:42;18.20;70.40
22360;DHT22;11347;52.030;4.690;2022-10-22T06:21:10;18.30;70.60
22360;DHT22;11347;52.030;4.690;2022-10-22T06:23:37;18.30;70.70
22360;DHT22;11347;52.030;4.690;2022-10-22T06:26:03;18.30;70.70
22360;DHT22;11347;52.030;4.690;2022-10-22T06:28:30;18.30;70.70
22360;DHT22;11347;52.030;4.690;2022-10-22T06:30:59;18.30;70.60
22360;DHT22;11347;52.030;4.690;2022-10-22T06:33:26;18.30;70.70
22360;DHT22;11347;52.030;4.690;2022-10-22T06:35:52;18.30;70.60
22360;DHT22;11347;52.030;4.690;2022-10-22T06:38:18;18.30;70.60
22360;DHT22;11347;52.030;4.690;2022-10-22T06:40:43;18.30;70.60
22360;DHT22;11347;52.030;4.690;2022-10-22T06:43:13;18.30;70.50
22360;DHT22;11347;52.030;4.690;2022-10-22T06:45:39;18.30;70.60
22360;DHT22;11347;52.030;4.690;2022-10-22T06:48:05;18.30;70.70
22360;DHT22;11347;52.030;4.690;2022-10-22T06:50:33;18.30;70.70
22360;DHT22;11347;52.030;4.690;2022-10-22T06:52:58;18.30;70.80
22360;DHT22;11347;52.030;4.690;2022-10-22T06:55:24;18.30;70.70
22360;DHT22;11347;52.030;4.690;2022-10-22T06:57:49;18.30;70.50
22360;DHT22;11347;52.030;4.690;2022-10-22T07:00:15;18.40;70.40
22360;DHT22;11347;52.030;4.690;2022-10-22T07:02:41;18.30;70.10
22360;DHT22;11347;52.030;4.690;2022-10-22T07:05:07;18.30;70.00
22360;DHT22;11347;52.030;4.690;2022-10-22T07:07:32;18.30;69.90
22360;DHT22;11347;52.030;4.690;2022-10-22T07:09:58;18.30;70.30
22360;DHT22;11347;52.030;4.690;2022-10-22T07:12:24;18.30;70.30
22360;DHT22;11347;52.030;4.690;2022-10-22T07:14:50;18.30;70.20
22360;DHT22;11347;52.030;4.690;2022-10-22T07:17:16;18.40;70.00
22360;DHT22;11347;52.030;4.690;2022-10-22T07:19:41;18.40;70.00
22360;DHT22;11347;52.030;4.690;2022-10-22T07:22:07;18.40;69.80
22360;DHT22;11347;52.030;4.690;2022-10-22T07:24:32;18.40;69.70
22360;DHT22;11347;52.030;4.690;2022-10-22T07:26:58;18.40;69.50
22360;DHT22;11347;52.030;4.690;2022-10-22T07:29:24;18.40;69.40
22360;DHT22;11347;52.030;4.690;2022-10-22T07:31:49;18.40;69.40
22360;DHT22;11347;52.030;4.690;2022-10-22T07:34:15;18.40;69.20
22360;DHT22;11347;52.030;4.690;2022-10-22T07:36:40;18.40;69.10
22360;DHT22;11347;52.030;4.690;2022-10-22T07:39:06;18.40;69.10
22360;DHT22;11347;52.030;4.690;2022-10-22T07:41:31;18.40;69.10
22360;DHT22;11347;52.030;4.690;2022-10-22T07:43:57;18.40;69.00
22360;DHT22;11347;52.030;4.690;2022-10-22T07:46:24;18.40;68.90
22360;DHT22;11347;52.030;4.690;2022-10-22T07:48:50;18.40;68.90
22360;DHT22;11347;52.030;4.690;2022-10-22T07:51:15;18.40;68.80
22360;DHT22;11347;52.030;4.690;2022-10-22T07:53:41;18.40;68.80
22360;DHT22;11347;52.030;4.690;2022-10-22T07:56:07;18.40;68.70
22360;DHT22;11347;52.030;4.690;2022-10-22T07:58:33;18.40;68.60
22360;DHT22;11347;52.030;4.690;2022-10-22T08:01:00;18.40;68.60
22360;DHT22;11347;52.030;4.690;2022-10-22T08:03:26;18.40;68.60
22360;DHT22;11347;52.030;4.690;2022-10-22T08:05:52;18.40;69.00
22360;DHT22;11347;52.030;4.690;2022-10-22T08:08:18;18.40;68.60
22360;DHT22;11347;52.030;4.690;2022-10-22T08:10:45;18.40;68.60
22360;DHT22;11347;52.030;4.690;2022-10-22T08:13:11;18.40;68.50
22360;DHT22;11347;52.030;4.690;2022-10-22T08:15:37;18.40;68.40
22360;DHT22;11347;52.030;4.690;2022-10-22T08:18:02;18.50;68.40
22360;DHT22;11347;52.030;4.690;2022-10-22T08:20:28;18.50;68.40
22360;DHT22;11347;52.030;4.690;2022-10-22T08:22:53;18.50;68.40
22360;DHT22;11347;52.030;4.690;2022-10-22T08:25:19;18.50;68.30
22360;DHT22;11347;52.030;4.690;2022-10-22T08:27:45;18.50;68.20
22360;DHT22;11347;52.030;4.690;2022-10-22T08:30:11;18.50;68.20
22360;DHT22;11347;52.030;4.690;2022-10-22T08:32:36;18.60;68.20
22360;DHT22;11347;52.030;4.690;2022-10-22T08:35:02;18.60;68.20
22360;DHT22;11347;52.030;4.690;2022-10-22T08:37:28;18.50;68.00
22360;DHT22;11347;52.030;4.690;2022-10-22T08:39:53;18.60;68.10
22360;DHT22;11347;52.030;4.690;2022-10-22T08:50:33;18.60;68.00
22360;DHT22;11347;52.030;4.690;2022-10-22T08:53:03;18.60;68.00
22360;DHT22;11347;52.030;4.690;2022-10-22T08:55:30;18.60;68.00
22360;DHT22;11347;52.030;4.690;2022-10-22T09:03:58;18.70;68.10
22360;DHT22;11347;52.030;4.690;2022-10-22T09:06:31;18.70;68.10
22360;DHT22;11347;52.030;4.690;2022-10-22T09:08:58;18.70;68.10
22360;DHT22;11347;52.030;4.690;2022-10-22T09:11:31;18.70;68.10
22360;DHT22;11347;52.030;4.690;2022-10-22T09:13:58;18.70;68.10
22360;DHT22;11347;52.030;4.690;2022-10-22T09:19:48;18.70;68.20
22360;DHT22;11347;52.030;4.690;2022-10-22T09:27:41;18.80;68.20
22360;DHT22;11347;52.030;4.690;2022-10-22T09:30:20;18.80;68.20
22360;DHT22;11347;52.030;4.690;2022-10-22T09:32:51;18.80;68.20
22360;DHT22;11347;52.030;4.690;2022-10-22T09:35:22;18.70;68.00
22360;DHT22;11347;52.030;4.690;2022-10-22T09:37:50;18.80;68.10
22360;DHT22;11347;52.030;4.690;2022-10-22T09:40:16;18.80;68.10
22360;DHT22;11347;52.030;4.690;2022-10-22T09:42:44;18.80;68.10
22360;DHT22;11347;52.030;4.690;2022-10-22T09:45:24;18.80;68.10
22360;DHT22;11347;52.030;4.690;2022-10-22T09:48:02;18.80;68.10
22360;DHT22;11347;52.030;4.690;2022-10-22T09:50:46;18.80;68.00
22360;DHT22;11347;52.030;4.690;2022-10-22T09:53:38;18.80;68.00
22360;DHT22;11347;52.030;4.690;2022-10-22T09:56:08;18.80;68.00
22360;DHT22;11347;52.030;4.690;2022-10-22T09:58:45;18.80;68.00
22360;DHT22;11347;52.030;4.690;2022-10-22T10:01:21;18.90;68.00
22360;DHT22;11347;52.030;4.690;2022-10-22T10:03:48;18.90;68.00
22360;DHT22;11347;52.030;4.690;2022-10-22T10:06:21;18.90;68.00
22360;DHT22;11347;52.030;4.690;2022-10-22T10:08:47;18.90;67.90
22360;DHT22;11347;52.030;4.690;2022-10-22T10:11:25;18.90;67.90
22360;DHT22;11347;52.030;4.690;2022-10-22T10:16:57;19.00;67.90
22360;DHT22;11347;52.030;4.690;2022-10-22T10:19:45;19.00;67.70
22360;DHT22;11347;52.030;4.690;2022-10-22T10:28:29;19.00;67.70
22360;DHT22;11347;52.030;4.690;2022-10-22T10:30:42;19.00;67.60
22360;DHT22;11347;52.030;4.690;2022-10-22T10:36:06;19.10;67.40
22360;DHT22;11347;52.030;4.690;2022-10-22T10:38:50;19.10;67.30
22360;DHT22;11347;52.030;4.690;2022-10-22T10:41:47;19.10;67.30
22360;DHT22;11347;52.030;4.690;2022-10-22T10:49:46;19.20;67.60
22360;DHT22;11347;52.030;4.690;2022-10-22T10:52:39;19.20;67.00
22360;DHT22;11347;52.030;4.690;2022-10-22T10:55:24;19.30;67.10
22360;DHT22;11347;52.030;4.690;2022-10-22T10:58:20;19.20;66.80
22360;DHT22;11347;52.030;4.690;2022-10-22T11:00:55;19.30;66.90
22360;DHT22;11347;52.030;4.690;2022-10-22T11:06:09;19.30;66.40
22360;DHT22;11347;52.030;4.690;2022-10-22T11:09:01;19.40;66.50
22360;DHT22;11347;52.030;4.690;2022-10-22T11:11:46;19.40;66.50
22360;DHT22;11347;52.030;4.690;2022-10-22T11:14:20;19.40;66.50
22360;DHT22;11347;52.030;4.690;2022-10-22T11:16:54;19.50;66.60
22360;DHT22;11347;52.030;4.690;2022-10-22T11:19:29;19.50;66.60
22360;DHT22;11347;52.030;4.690;2022-10-22T11:21:57;19.50;66.60
22360;DHT22;11347;52.030;4.690;2022-10-22T11:30:04;19.60;66.70
22360;DHT22;11347;52.030;4.690;2022-10-22T11:32:31;19.60;66.70
22360;DHT22;11347;52.030;4.690;2022-10-22T11:35:01;19.50;66.50
22360;DHT22;11347;52.030;4.690;2022-10-22T11:37:31;19.60;66.40
22360;DHT22;11347;52.030;4.690;2022-10-22T11:40:13;19.60;66.30
22360;DHT22;11347;52.030;4.690;2022-10-22T11:42:44;19.60;66.20
22360;DHT22;11347;52.030;4.690;2022-10-22T11:48:03;19.60;65.90
22360;DHT22;11347;52.030;4.690;2022-10-22T11:58:29;19.60;65.60
22360;DHT22;11347;52.030;4.690;2022-10-22T12:01:15;19.60;65.50
22360;DHT22;11347;52.030;4.690;2022-10-22T12:03:50;19.80;65.60
22360;DHT22;11347;52.030;4.690;2022-10-22T12:06:26;19.70;65.40
22360;DHT22;11347;52.030;4.690;2022-10-22T12:14:23;19.70;65.30
22360;DHT22;11347;52.030;4.690;2022-10-22T12:17:11;19.80;65.20
22360;DHT22;11347;52.030;4.690;2022-10-22T12:20:27;19.80;65.10
22360;DHT22;11347;52.030;4.690;2022-10-22T12:22:34;19.80;65.00
22360;DHT22;11347;52.030;4.690;2022-10-22T12:25:09;19.80;65.00
22360;DHT22;11347;52.030;4.690;2022-10-22T12:27:41;19.80;64.80
22360;DHT22;11347;52.030;4.690;2022-10-22T12:30:22;19.80;64.70
22360;DHT22;11347;52.030;4.690;2022-10-22T12:32:53;19.80;64.70
22360;DHT22;11347;52.030;4.690;2022-10-22T12:35:23;19.80;64.60
22360;DHT22;11347;52.030;4.690;2022-10-22T12:37:51;19.90;64.70
22360;DHT22;11347;52.030;4.690;2022-10-22T12:40:24;19.80;64.50
22360;DHT22;11347;52.030;4.690;2022-10-22T12:42:52;19.90;64.60
22360;DHT22;11347;52.030;4.690;2022-10-22T12:45:19;19.80;64.50
22360;DHT22;11347;52.030;4.690;2022-10-22T12:48:10;19.90;64.40
22360;DHT22;11347;52.030;4.690;2022-10-22T12:50:41;19.90;64.40
22360;DHT22;11347;52.030;4.690;2022-10-22T12:53:26;19.80;64.40
22360;DHT22;11347;52.030;4.690;2022-10-22T12:55:54;19.80;64.30
22360;DHT22;11347;52.030;4.690;2022-10-22T12:58:25;19.80;64.40
22360;DHT22;11347;52.030;4.690;2022-10-22T13:00:56;19.80;64.30
22360;DHT22;11347;52.030;4.690;2022-10-22T13:03:33;19.80;64.30
22360;DHT22;11347;52.030;4.690;2022-10-22T13:06:29;19.90;64.50
22360;DHT22;11347;52.030;4.690;2022-10-22T13:11:40;19.90;64.60
22360;DHT22;11347;52.030;4.690;2022-10-22T13:14:25;19.80;64.50
22360;DHT22;11347;52.030;4.690;2022-10-22T13:17:14;19.90;64.60
22360;DHT22;11347;52.030;4.690;2022-10-22T13:20:30;19.90;64.60
22360;DHT22;11347;52.030;4.690;2022-10-22T13:22:39;19.90;64.70
22360;DHT22;11347;52.030;4.690;2022-10-22T13:28:29;19.90;64.60
22360;DHT22;11347;52.030;4.690;2022-10-22T13:30:33;19.90;64.50
22360;DHT22;11347;52.030;4.690;2022-10-22T13:33:02;19.90;64.40
22360;DHT22;11347;52.030;4.690;2022-10-22T13:35:35;19.90;64.40
22360;DHT22;11347;52.030;4.690;2022-10-22T13:38:05;19.90;64.30
22360;DHT22;11347;52.030;4.690;2022-10-22T13:40:38;19.90;64.20
22360;DHT22;11347;52.030;4.690;2022-10-22T13:43:03;19.90;64.20
22360;DHT22;11347;52.030;4.690;2022-10-22T13:45:29;20.00;64.30
22360;DHT22;11347;52.030;4.690;2022-10-22T13:47:54;19.90;64.10
22360;DHT22;11347;52.030;4.690;2022-10-22T13:50:21;19.90;64.10
22360;DHT22;11347;52.030;4.690;2022-10-22T13:52:53;19.90;64.20
22360;DHT22;11347;52.030;4.690;2022-10-22T13:55:26;19.90;64.10
22360;DHT22;11347;52.030;4.690;2022-10-22T13:58:17;19.90;64.50
22360;DHT22;11347;52.030;4.690;2022-10-22T14:00:45;19.90;64.00
22360;DHT22;11347;52.030;4.690;2022-10-22T14:03:14;19.90;64.00
22360;DHT22;11347;52.030;4.690;2022-10-22T14:05:41;19.90;64.00
22360;DHT22;11347;52.030;4.690;2022-10-22T14:08:18;19.90;64.00
22360;DHT22;11347;52.030;4.690;2022-10-22T14:10:44;19.90;64.00
22360;DHT22;11347;52.030;4.690;2022-10-22T14:13:11;19.80;63.80
22360;DHT22;11347;52.030;4.690;2022-10-22T14:15:37;19.90;63.80
22360;DHT22;11347;52.030;4.690;2022-10-22T14:18:03;19.80;63.60
22360;DHT22;11347;52.030;4.690;2022-10-22T14:20:31;19.80;63.70
22360;DHT22;11347;52.030;4.690;2022-10-22T14:23:04;19.80;63.60
22360;DHT22;11347;52.030;4.690;2022-10-22T14:25:32;19.80;63.60
22360;DHT22;11347;52.030;4.690;2022-10-22T14:27:58;19.80;63.50
22360;DHT22;11347;52.030;4.690;2022-10-22T14:30:25;19.80;63.50
22360;DHT22;11347;52.030;4.690;2022-10-22T14:32:50;19.80;63.40
22360;DHT22;11347;52.030;4.690;2022-10-22T14:35:19;19.80;63.50
22360;DHT22;11347;52.030;4.690;2022-10-22T14:37:45;19.80;63.40
22360;DHT22;11347;52.030;4.690;2022-10-22T14:40:13;19.80;63.40
22360;DHT22;11347;52.030;4.690;2022-10-22T14:42:42;19.80;63.50
22360;DHT22;11347;52.030;4.690;2022-10-22T14:45:23;19.70;63.40
22360;DHT22;11347;52.030;4.690;2022-10-22T14:47:50;19.70;63.30
22360;DHT22;11347;52.030;4.690;2022-10-22T14:50:17;19.70;63.30
22360;DHT22;11347;52.030;4.690;2022-10-22T14:52:43;19.70;63.40
22360;DHT22;11347;52.030;4.690;2022-10-22T14:55:10;19.70;63.40
22360;DHT22;11347;52.030;4.690;2022-10-22T14:57:36;19.70;63.50
22360;DHT22;11347;52.030;4.690;2022-10-22T15:00:05;19.70;63.50
22360;DHT22;11347;52.030;4.690;2022-10-22T15:02:31;19.70;63.40
22360;DHT22;11347;52.030;4.690;2022-10-22T15:04:57;19.70;63.50
22360;DHT22;11347;52.030;4.690;2022-10-22T15:07:22;19.70;63.50
22360;DHT22;11347;52.030;4.690;2022-10-22T15:09:49;19.60;63.40
22360;DHT22;11347;52.030;4.690;2022-10-22T15:12:15;19.70;63.50
22360;DHT22;11347;52.030;4.690;2022-10-22T15:14:40;19.60;63.50
22360;DHT22;11347;52.030;4.690;2022-10-22T15:17:06;19.70;63.60
22360;DHT22;11347;52.030;4.690;2022-10-22T15:19:31;19.60;63.50
22360;DHT22;11347;52.030;4.690;2022-10-22T15:21:57;19.70;63.60
22360;DHT22;11347;52.030;4.690;2022-10-22T15:24:23;19.60;63.50
22360;DHT22;11347;52.030;4.690;2022-10-22T15:26:48;19.60;63.60
22360;DHT22;11347;52.030;4.690;2022-10-22T15:29:16;19.60;63.60
22360;DHT22;11347;52.030;4.690;2022-10-22T15:34:24;19.60;63.60
22360;DHT22;11347;52.030;4.690;2022-10-22T15:36:52;19.60;63.70
22360;DHT22;11347;52.030;4.690;2022-10-22T15:39:17;19.60;63.70
22360;DHT22;11347;52.030;4.690;2022-10-22T15:41:44;19.60;63.70
22360;DHT22;11347;52.030;4.690;2022-10-22T15:44:19;19.60;64.10
22360;DHT22;11347;52.030;4.690;2022-10-22T15:46:45;19.60;63.70
22360;DHT22;11347;52.030;4.690;2022-10-22T15:49:11;19.60;63.70
22360;DHT22;11347;52.030;4.690;2022-10-22T15:51:37;19.50;63.70
22360;DHT22;11347;52.030;4.690;2022-10-22T15:54:03;19.50;63.70
22360;DHT22;11347;52.030;4.690;2022-10-22T15:56:29;19.50;63.80
22360;DHT22;11347;52.030;4.690;2022-10-22T15:59:00;19.50;64.20
22360;DHT22;11347;52.030;4.690;2022-10-22T16:01:29;19.50;63.90
22360;DHT22;11347;52.030;4.690;2022-10-22T16:03:55;19.50;64.00
22360;DHT22;11347;52.030;4.690;2022-10-22T16:06:35;19.40;64.00
22360;DHT22;11347;52.030;4.690;2022-10-22T16:09:06;19.40;64.00
22360;DHT22;11347;52.030;4.690;2022-10-22T16:11:32;19.40;64.00
22360;DHT22;11347;52.030;4.690;2022-10-22T16:13:59;19.40;64.20
22360;DHT22;11347;52.030;4.690;2022-10-22T16:16:28;19.40;64.20
22360;DHT22;11347;52.030;4.690;2022-10-22T16:18:53;19.40;64.30
22360;DHT22;11347;52.030;4.690;2022-10-22T16:21:20;19.40;64.30
22360;DHT22;11347;52.030;4.690;2022-10-22T16:23:46;19.30;64.30
22360;DHT22;11347;52.030;4.690;2022-10-22T16:26:12;19.30;64.30
22360;DHT22;11347;52.030;4.690;2022-10-22T16:28:39;19.40;64.50
22360;DHT22;11347;52.030;4.690;2022-10-22T16:31:07;19.30;64.50
22360;DHT22;11347;52.030;4.690;2022-10-22T16:33:37;19.30;64.50
22360;DHT22;11347;52.030;4.690;2022-10-22T16:36:11;19.30;64.60
22360;DHT22;11347;52.030;4.690;2022-10-22T16:38:37;19.20;64.70
22360;DHT22;11347;52.030;4.690;2022-10-22T16:41:22;19.30;64.80
22360;DHT22;11347;52.030;4.690;2022-10-22T16:43:49;19.20;64.80
22360;DHT22;11347;52.030;4.690;2022-10-22T16:46:17;19.20;64.80
22360;DHT22;11347;52.030;4.690;2022-10-22T16:48:47;19.20;65.00
22360;DHT22;11347;52.030;4.690;2022-10-22T16:51:15;19.20;65.10
22360;DHT22;11347;52.030;4.690;2022-10-22T16:53:41;19.20;65.10
22360;DHT22;11347;52.030;4.690;2022-10-22T16:56:11;19.20;65.20
22360;DHT22;11347;52.030;4.690;2022-10-22T16:58:38;19.10;65.20
22360;DHT22;11347;52.030;4.690;2022-10-22T17:01:08;19.10;65.30
22360;DHT22;11347;52.030;4.690;2022-10-22T17:03:34;19.10;65.30
22360;DHT22;11347;52.030;4.690;2022-10-22T17:06:00;19.10;65.40
22360;DHT22;11347;52.030;4.690;2022-10-22T17:08:26;19.10;65.40
22360;DHT22;11347;52.030;4.690;2022-10-22T17:10:52;19.10;65.50
22360;DHT22;11347;52.030;4.690;2022-10-22T17:13:17;19.00;65.60
22360;DHT22;11347;52.030;4.690;2022-10-22T17:15:43;19.00;65.60
22360;DHT22;11347;52.030;4.690;2022-10-22T17:18:09;19.00;65.70
22360;DHT22;11347;52.030;4.690;2022-10-22T17:20:34;19.00;65.70